Hauptseite
METAR-TAF:

METAR-TAF

Flughäfen :

Awg-1, Niederlande

Bohrplattform

Breite: 53-29-30N, Länge: 5-56-30E, Höhe: 33 m

Beobachtung

Neuester Wetterbericht von vor 33 Minuten, um 01:55 UTC
Wind 19 kt aus West
Temperatur 13°C
Luftfeuchtigkeit 88%
Luftdruck 1010 hPa
Sichtweite: 7000 m
Leicht bewölkt in der Höhe von 1000 ft
Aufgelockert bewölkt in der Höhe von 1300 ft
Leicht bewölkt in der Höhe von 1500 ft, Kumulonimbus.
Durchbrochene Bewölkung in der Höhe von 1600 ft
Leichtregen

METAR: EHMA 230155Z AUTO 26019KT 7000 -RA FEW010 SCT013 FEW015CB BKN016 13/11 Q1010 RERA REDZ

Zeit: 04:28 (02:28 UTC)


TAF: fehlend

Wetterbeobachtungen und Prognosen von mehr als 4000 Flughäfen (METAR und TAF Bericht).

Die verfügbaren Stationen werden durch gelbe und rote Markierungen auf der Karte dargestellt.

Führen Sie die Maus auf sie, um den Namen der Station zu sehen.

Darauf klicken, um die Beobachtung von Wetterbeobachtungen und Prognosen zu sehen.

Um die Karte zu ändern : klicken Sie auf den grünen Tasten mit einem schwarzen Kreuz Zum Vergrößern, auf den grünen Button mit einem Gedankenstrich zu verkleinern, oder auf die grünen Pfeile für benachbarte Karten.


METAR-TAF: